sensor_id;sensor_type;location;lat;lon;timestamp;pressure;altitude;pressure_sealevel;temperature;humidity
10460;BME280;54412;51.206;6.888;2024-02-21T00:00:56;101648.81;;;10.50;89.92
10460;BME280;54412;51.206;6.888;2024-02-21T00:03:22;101644.88;;;10.62;89.29
10460;BME280;54412;51.206;6.888;2024-02-21T00:05:47;101636.50;;;10.49;89.63
10460;BME280;54412;51.206;6.888;2024-02-21T00:08:13;101634.81;;;10.48;90.48
10460;BME280;54412;51.206;6.888;2024-02-21T00:10:39;101640.66;;;10.58;89.88
10460;BME280;54412;51.206;6.888;2024-02-21T00:13:04;101627.66;;;10.51;89.98
10460;BME280;54412;51.206;6.888;2024-02-21T00:15:30;101622.00;;;10.62;90.13
10460;BME280;54412;51.206;6.888;2024-02-21T00:17:56;101625.13;;;10.48;89.52
10460;BME280;54412;51.206;6.888;2024-02-21T00:20:21;101618.56;;;10.60;90.13
10460;BME280;54412;51.206;6.888;2024-02-21T00:22:47;101615.34;;;10.50;89.94
10460;BME280;54412;51.206;6.888;2024-02-21T00:25:13;101613.00;;;10.43;90.78
10460;BME280;54412;51.206;6.888;2024-02-21T00:27:38;101603.59;;;10.61;90.42
10460;BME280;54412;51.206;6.888;2024-02-21T00:30:05;101602.53;;;10.66;90.24
10460;BME280;54412;51.206;6.888;2024-02-21T00:32:31;101605.41;;;10.59;90.60
10460;BME280;54412;51.206;6.888;2024-02-21T00:34:59;101606.16;;;10.62;90.81
10460;BME280;54412;51.206;6.888;2024-02-21T00:37:25;101610.13;;;10.75;90.28
10460;BME280;54412;51.206;6.888;2024-02-21T00:39:50;101588.50;;;10.89;89.36
10460;BME280;54412;51.206;6.888;2024-02-21T00:42:16;101584.63;;;10.74;89.30
10460;BME280;54412;51.206;6.888;2024-02-21T00:44:42;101584.16;;;10.63;90.52
10460;BME280;54412;51.206;6.888;2024-02-21T00:47:07;101579.03;;;10.59;90.67
10460;BME280;54412;51.206;6.888;2024-02-21T00:49:33;101577.31;;;10.58;90.77
10460;BME280;54412;51.206;6.888;2024-02-21T00:51:59;101580.94;;;10.55;91.50
10460;BME280;54412;51.206;6.888;2024-02-21T00:54:24;101578.28;;;10.55;91.39
10460;BME280;54412;51.206;6.888;2024-02-21T00:56:50;101578.22;;;10.57;91.15
10460;BME280;54412;51.206;6.888;2024-02-21T00:59:15;101580.47;;;10.42;92.59
10460;BME280;54412;51.206;6.888;2024-02-21T01:01:41;101581.03;;;10.52;92.09
10460;BME280;54412;51.206;6.888;2024-02-21T01:04:09;101575.69;;;10.53;92.06
10460;BME280;54412;51.206;6.888;2024-02-21T01:06:35;101572.84;;;10.60;91.73
10460;BME280;54412;51.206;6.888;2024-02-21T01:09:01;101578.47;;;10.49;92.41
10460;BME280;54412;51.206;6.888;2024-02-21T01:11:27;101576.53;;;10.56;92.39
10460;BME280;54412;51.206;6.888;2024-02-21T01:13:53;101564.59;;;10.44;92.21
10460;BME280;54412;51.206;6.888;2024-02-21T01:16:20;101567.47;;;10.63;92.20
10460;BME280;54412;51.206;6.888;2024-02-21T01:18:46;101567.53;;;10.61;92.09
10460;BME280;54412;51.206;6.888;2024-02-21T01:21:11;101562.69;;;10.74;91.21
10460;BME280;54412;51.206;6.888;2024-02-21T01:23:37;101552.94;;;10.76;91.11
10460;BME280;54412;51.206;6.888;2024-02-21T01:26:04;101546.59;;;10.80;90.83
10460;BME280;54412;51.206;6.888;2024-02-21T01:28:30;101542.06;;;10.83;90.54
10460;BME280;54412;51.206;6.888;2024-02-21T01:30:58;101529.97;;;10.78;90.87
10460;BME280;54412;51.206;6.888;2024-02-21T01:33:24;101533.81;;;10.69;91.53
10460;BME280;54412;51.206;6.888;2024-02-21T01:35:50;101533.34;;;10.81;91.22
10460;BME280;54412;51.206;6.888;2024-02-21T01:38:16;101531.97;;;10.71;91.45
10460;BME280;54412;51.206;6.888;2024-02-21T01:40:41;101526.69;;;10.71;90.97
10460;BME280;54412;51.206;6.888;2024-02-21T01:43:20;101521.63;;;10.65;91.62
10460;BME280;54412;51.206;6.888;2024-02-21T01:45:53;101515.13;;;10.75;91.08
10460;BME280;54412;51.206;6.888;2024-02-21T01:48:22;101509.09;;;10.72;91.22
10460;BME280;54412;51.206;6.888;2024-02-21T01:50:49;101510.75;;;10.74;91.29
10460;BME280;54412;51.206;6.888;2024-02-21T01:53:27;101496.19;;;10.64;91.82
10460;BME280;54412;51.206;6.888;2024-02-21T01:55:54;101494.47;;;10.63;92.17
10460;BME280;54412;51.206;6.888;2024-02-21T01:58:23;101491.28;;;10.53;92.56
10460;BME280;54412;51.206;6.888;2024-02-21T02:00:50;101495.16;;;10.68;92.07
10460;BME280;54412;51.206;6.888;2024-02-21T02:03:16;101494.34;;;10.66;91.30
10460;BME280;54412;51.206;6.888;2024-02-21T02:05:44;101493.06;;;10.76;91.40
10460;BME280;54412;51.206;6.888;2024-02-21T02:08:13;101490.47;;;10.51;92.30
10460;BME280;54412;51.206;6.888;2024-02-21T02:10:40;101480.81;;;10.52;92.25
10460;BME280;54412;51.206;6.888;2024-02-21T02:13:06;101476.59;;;10.46;92.18
10460;BME280;54412;51.206;6.888;2024-02-21T02:15:44;101475.81;;;10.44;92.65
10460;BME280;54412;51.206;6.888;2024-02-21T02:18:10;101467.63;;;10.27;93.77
10460;BME280;54412;51.206;6.888;2024-02-21T02:20:36;101465.38;;;10.41;92.94
10460;BME280;54412;51.206;6.888;2024-02-21T02:23:12;101460.44;;;10.56;91.93
10460;BME280;54412;51.206;6.888;2024-02-21T02:25:39;101452.66;;;10.28;92.93
10460;BME280;54412;51.206;6.888;2024-02-21T02:28:08;101449.97;;;10.29;93.25
10460;BME280;54412;51.206;6.888;2024-02-21T02:30:35;101451.03;;;10.48;92.60
10460;BME280;54412;51.206;6.888;2024-02-21T02:33:05;101449.56;;;10.41;92.94
10460;BME280;54412;51.206;6.888;2024-02-21T02:35:32;101438.53;;;10.53;92.77
10460;BME280;54412;51.206;6.888;2024-02-21T02:37:58;101438.63;;;10.50;92.21
10460;BME280;54412;51.206;6.888;2024-02-21T02:40:24;101432.78;;;10.42;92.43
10460;BME280;54412;51.206;6.888;2024-02-21T02:42:50;101432.03;;;10.39;92.09
10460;BME280;54412;51.206;6.888;2024-02-21T02:45:17;101432.91;;;10.39;92.80
10460;BME280;54412;51.206;6.888;2024-02-21T02:47:47;101446.50;;;10.52;92.36
10460;BME280;54412;51.206;6.888;2024-02-21T02:50:13;101434.13;;;10.54;92.29
10460;BME280;54412;51.206;6.888;2024-02-21T02:52:39;101436.78;;;10.54;92.10
10460;BME280;54412;51.206;6.888;2024-02-21T02:55:06;101437.25;;;10.40;92.81
10460;BME280;54412;51.206;6.888;2024-02-21T02:57:32;101432.84;;;10.41;92.88
10460;BME280;54412;51.206;6.888;2024-02-21T02:59:58;101429.88;;;10.50;92.24
10460;BME280;54412;51.206;6.888;2024-02-21T03:02:24;101432.03;;;10.39;92.48
10460;BME280;54412;51.206;6.888;2024-02-21T03:04:49;101427.50;;;10.42;92.44
10460;BME280;54412;51.206;6.888;2024-02-21T03:07:16;101410.34;;;10.56;91.78
10460;BME280;54412;51.206;6.888;2024-02-21T03:09:42;101409.63;;;10.50;91.89
10460;BME280;54412;51.206;6.888;2024-02-21T03:12:11;101405.84;;;10.58;91.32
10460;BME280;54412;51.206;6.888;2024-02-21T03:14:37;101395.59;;;10.50;91.97
10460;BME280;54412;51.206;6.888;2024-02-21T03:17:03;101402.97;;;10.40;92.14
10460;BME280;54412;51.206;6.888;2024-02-21T03:19:29;101402.41;;;10.32;92.82
10460;BME280;54412;51.206;6.888;2024-02-21T03:21:55;101395.53;;;10.28;93.11
10460;BME280;54412;51.206;6.888;2024-02-21T03:24:21;101387.56;;;10.30;93.04
10460;BME280;54412;51.206;6.888;2024-02-21T03:26:47;101380.91;;;10.43;92.47
10460;BME280;54412;51.206;6.888;2024-02-21T03:29:15;101375.72;;;10.41;92.27
10460;BME280;54412;51.206;6.888;2024-02-21T03:31:42;101371.59;;;10.33;92.16
10460;BME280;54412;51.206;6.888;2024-02-21T03:34:10;101363.53;;;10.37;92.38
10460;BME280;54412;51.206;6.888;2024-02-21T03:36:36;101374.84;;;10.41;91.90
10460;BME280;54412;51.206;6.888;2024-02-21T03:39:02;101380.16;;;10.39;92.38
10460;BME280;54412;51.206;6.888;2024-02-21T03:41:28;101376.47;;;10.43;92.00
10460;BME280;54412;51.206;6.888;2024-02-21T03:43:54;101372.25;;;10.39;92.26
10460;BME280;54412;51.206;6.888;2024-02-21T03:46:20;101360.50;;;10.25;92.78
10460;BME280;54412;51.206;6.888;2024-02-21T03:48:45;101369.03;;;10.31;92.89
10460;BME280;54412;51.206;6.888;2024-02-21T03:51:11;101369.91;;;10.32;92.73
10460;BME280;54412;51.206;6.888;2024-02-21T03:53:37;101377.63;;;10.36;92.62
10460;BME280;54412;51.206;6.888;2024-02-21T03:56:03;101370.31;;;10.21;93.39
10460;BME280;54412;51.206;6.888;2024-02-21T03:58:30;101358.63;;;10.28;92.85
10460;BME280;54412;51.206;6.888;2024-02-21T04:00:56;101363.00;;;10.28;92.82
10460;BME280;54412;51.206;6.888;2024-02-21T04:03:22;101361.72;;;10.39;92.82
10460;BME280;54412;51.206;6.888;2024-02-21T04:05:48;101372.25;;;10.39;92.09
10460;BME280;54412;51.206;6.888;2024-02-21T04:08:13;101375.50;;;10.46;92.11
10460;BME280;54412;51.206;6.888;2024-02-21T04:10:39;101363.53;;;10.37;92.33
10460;BME280;54412;51.206;6.888;2024-02-21T04:13:06;101367.03;;;10.38;92.59
10460;BME280;54412;51.206;6.888;2024-02-21T04:15:32;101370.66;;;10.35;92.75
10460;BME280;54412;51.206;6.888;2024-02-21T04:17:58;101366.00;;;10.42;92.50
10460;BME280;54412;51.206;6.888;2024-02-21T04:20:24;101362.41;;;10.44;92.18
10460;BME280;54412;51.206;6.888;2024-02-21T04:22:50;101363.75;;;10.31;92.66
10460;BME280;54412;51.206;6.888;2024-02-21T04:25:15;101355.78;;;10.33;91.35
10460;BME280;54412;51.206;6.888;2024-02-21T04:27:41;101355.22;;;10.25;92.75
10460;BME280;54412;51.206;6.888;2024-02-21T04:30:08;101358.63;;;10.28;92.23
10460;BME280;54412;51.206;6.888;2024-02-21T04:32:35;101352.19;;;10.35;92.72
10460;BME280;54412;51.206;6.888;2024-02-21T04:35:01;101354.53;;;10.43;92.12
10460;BME280;54412;51.206;6.888;2024-02-21T04:37:26;101354.94;;;10.32;91.61
10460;BME280;54412;51.206;6.888;2024-02-21T04:39:52;101351.31;;;10.35;92.14
10460;BME280;54412;51.206;6.888;2024-02-21T04:42:19;101362.31;;;10.46;91.63
10460;BME280;54412;51.206;6.888;2024-02-21T04:44:45;101361.75;;;10.38;91.95
10460;BME280;54412;51.206;6.888;2024-02-21T04:47:10;101359.50;;;10.27;91.46
10460;BME280;54412;51.206;6.888;2024-02-21T04:49:36;101358.75;;;10.24;91.78
10460;BME280;54412;51.206;6.888;2024-02-21T04:52:02;101358.75;;;10.24;92.25
10460;BME280;54412;51.206;6.888;2024-02-21T04:54:27;101351.97;;;10.41;91.44
10460;BME280;54412;51.206;6.888;2024-02-21T04:56:53;101346.16;;;10.32;91.40
10460;BME280;54412;51.206;6.888;2024-02-21T04:59:19;101353.97;;;10.35;91.65
10460;BME280;54412;51.206;6.888;2024-02-21T05:01:44;101353.44;;;10.25;91.03
10460;BME280;54412;51.206;6.888;2024-02-21T05:04:10;101353.44;;;10.25;91.07
10460;BME280;54412;51.206;6.888;2024-02-21T05:06:40;101345.50;;;10.27;92.00
10460;BME280;54412;51.206;6.888;2024-02-21T05:09:07;101348.06;;;10.51;90.79
10460;BME280;54412;51.206;6.888;2024-02-21T05:11:37;101342.78;;;10.51;90.64
10460;BME280;54412;51.206;6.888;2024-02-21T05:14:05;101348.28;;;10.45;90.45
10460;BME280;54412;51.206;6.888;2024-02-21T05:16:32;101347.72;;;10.37;90.61
10460;BME280;54412;51.206;6.888;2024-02-21T05:18:58;101339.41;;;10.48;89.64
10460;BME280;54412;51.206;6.888;2024-02-21T05:21:24;101340.50;;;10.42;89.43
10460;BME280;54412;51.206;6.888;2024-02-21T05:23:50;101339.22;;;10.29;90.10
10460;BME280;54412;51.206;6.888;2024-02-21T05:26:27;101341.63;;;10.35;89.89
10460;BME280;54412;51.206;6.888;2024-02-21T05:28:53;101334.81;;;10.30;89.99
10460;BME280;54412;51.206;6.888;2024-02-21T05:31:19;101332.91;;;10.57;88.53
10460;BME280;54412;51.206;6.888;2024-02-21T05:33:46;101332.50;;;10.44;89.17
10460;BME280;54412;51.206;6.888;2024-02-21T05:36:13;101327.97;;;10.47;88.94
10460;BME280;54412;51.206;6.888;2024-02-21T05:38:39;101327.81;;;10.52;88.16
10460;BME280;54412;51.206;6.888;2024-02-21T05:41:05;101319.03;;;10.51;88.31
10460;BME280;54412;51.206;6.888;2024-02-21T05:43:31;101319.09;;;10.50;88.23
10460;BME280;54412;51.206;6.888;2024-02-21T05:45:57;101326.50;;;10.40;88.20
10460;BME280;54412;51.206;6.888;2024-02-21T05:48:23;101326.34;;;10.45;88.37
10460;BME280;54412;51.206;6.888;2024-02-21T05:50:49;101325.81;;;10.35;88.78
10460;BME280;54412;51.206;6.888;2024-02-21T05:53:15;101327.69;;;10.55;88.03
10460;BME280;54412;51.206;6.888;2024-02-21T05:55:41;101318.38;;;10.46;88.00
10460;BME280;54412;51.206;6.888;2024-02-21T05:58:07;101327.19;;;10.45;88.12
10460;BME280;54412;51.206;6.888;2024-02-21T06:00:36;101317.13;;;10.55;87.48
10460;BME280;54412;51.206;6.888;2024-02-21T06:03:02;101314.34;;;10.36;88.20
10460;BME280;54412;51.206;6.888;2024-02-21T06:05:28;101303.44;;;10.45;89.28
10460;BME280;54412;51.206;6.888;2024-02-21T06:07:54;101301.31;;;10.55;88.98
10460;BME280;54412;51.206;6.888;2024-02-21T06:10:20;101302.84;;;10.61;88.90
10460;BME280;54412;51.206;6.888;2024-02-21T06:12:45;101295.69;;;10.86;88.87
10460;BME280;54412;51.206;6.888;2024-02-21T06:15:11;101284.63;;;10.76;89.21
10460;BME280;54412;51.206;6.888;2024-02-21T06:17:36;101278.50;;;10.76;88.70
10460;BME280;54412;51.206;6.888;2024-02-21T06:20:02;101274.34;;;10.70;88.14
10460;BME280;54412;51.206;6.888;2024-02-21T06:22:30;101277.06;;;10.67;88.06
10460;BME280;54412;51.206;6.888;2024-02-21T06:24:55;101273.47;;;10.48;87.87
10460;BME280;54412;51.206;6.888;2024-02-21T06:27:21;101272.00;;;10.63;88.77
10460;BME280;54412;51.206;6.888;2024-02-21T06:29:47;101266.16;;;10.54;88.12
10460;BME280;54412;51.206;6.888;2024-02-21T06:32:12;101264.16;;;10.61;87.80
10460;BME280;54412;51.206;6.888;2024-02-21T06:34:38;101270.22;;;10.63;86.68
10460;BME280;54412;51.206;6.888;2024-02-21T06:37:04;101270.31;;;10.60;86.59
10460;BME280;54412;51.206;6.888;2024-02-21T06:39:30;101261.69;;;10.57;86.88
10460;BME280;54412;51.206;6.888;2024-02-21T06:41:55;101253.31;;;10.45;87.55
10460;BME280;54412;51.206;6.888;2024-02-21T06:44:24;101250.22;;;10.36;87.85
10460;BME280;54412;51.206;6.888;2024-02-21T06:46:50;101247.94;;;10.48;87.36
10460;BME280;54412;51.206;6.888;2024-02-21T06:49:15;101257.06;;;10.40;87.91
10460;BME280;54412;51.206;6.888;2024-02-21T06:51:44;101254.06;;;10.49;87.42
10460;BME280;54412;51.206;6.888;2024-02-21T06:54:10;101248.69;;;10.52;87.18
10460;BME280;54412;51.206;6.888;2024-02-21T06:56:37;101241.63;;;10.52;87.49
10460;BME280;54412;51.206;6.888;2024-02-21T06:59:03;101242.78;;;10.45;87.47
10460;BME280;54412;51.206;6.888;2024-02-21T07:01:30;101238.50;;;10.43;86.87
10460;BME280;54412;51.206;6.888;2024-02-21T07:03:56;101241.44;;;10.35;87.78
10460;BME280;54412;51.206;6.888;2024-02-21T07:06:22;101238.81;;;10.35;86.92
10460;BME280;54412;51.206;6.888;2024-02-21T07:08:48;101240.44;;;10.38;86.69
10460;BME280;54412;51.206;6.888;2024-02-21T07:11:13;101238.28;;;10.26;87.50
10460;BME280;54412;51.206;6.888;2024-02-21T07:13:39;101238.28;;;10.26;87.35
10460;BME280;54412;51.206;6.888;2024-02-21T07:16:07;101246.41;;;10.43;86.75
10460;BME280;54412;51.206;6.888;2024-02-21T07:18:32;101256.31;;;10.36;86.47
10460;BME280;54412;51.206;6.888;2024-02-21T07:20:58;101245.72;;;10.38;86.40
10460;BME280;54412;51.206;6.888;2024-02-21T07:23:24;101242.34;;;10.34;86.67
10460;BME280;54412;51.206;6.888;2024-02-21T07:25:50;101237.13;;;10.33;86.70
10460;BME280;54412;51.206;6.888;2024-02-21T07:28:16;101244.31;;;10.29;87.21
10460;BME280;54412;51.206;6.888;2024-02-21T07:30:43;101239.09;;;10.05;87.89
10460;BME280;54412;51.206;6.888;2024-02-21T07:33:11;101224.72;;;10.13;88.11
10460;BME280;54412;51.206;6.888;2024-02-21T07:35:37;101236.31;;;10.31;87.90
10460;BME280;54412;51.206;6.888;2024-02-21T07:38:04;101237.56;;;10.22;87.96
10460;BME280;54412;51.206;6.888;2024-02-21T07:40:30;101228.75;;;10.23;88.52
10460;BME280;54412;51.206;6.888;2024-02-21T07:46:37;101234.50;;;10.33;88.00
10460;BME280;54412;51.206;6.888;2024-02-21T07:49:03;101221.81;;;10.42;88.28
10460;BME280;54412;51.206;6.888;2024-02-21T07:51:28;101225.91;;;10.28;89.12
10460;BME280;54412;51.206;6.888;2024-02-21T07:53:54;101224.50;;;10.19;89.88
10460;BME280;54412;51.206;6.888;2024-02-21T07:56:21;101220.72;;;10.26;90.19
10460;BME280;54412;51.206;6.888;2024-02-21T07:58:47;101210.22;;;10.25;89.79
10460;BME280;54412;51.206;6.888;2024-02-21T08:01:19;101210.22;;;10.25;90.09
10460;BME280;54412;51.206;6.888;2024-02-21T08:03:46;101200.72;;;10.21;90.31
10460;BME280;54412;51.206;6.888;2024-02-21T08:06:13;101201.59;;;10.21;90.41
10460;BME280;54412;51.206;6.888;2024-02-21T08:08:39;101208.00;;;10.14;90.78
10460;BME280;54412;51.206;6.888;2024-02-21T08:11:05;101192.88;;;10.19;90.79
10460;BME280;54412;51.206;6.888;2024-02-21T08:13:31;101197.16;;;10.22;91.12
10460;BME280;54412;51.206;6.888;2024-02-21T08:15:57;101184.84;;;10.22;90.56
10460;BME280;54412;51.206;6.888;2024-02-21T08:18:23;101172.25;;;10.07;91.67
10460;BME280;54412;51.206;6.888;2024-02-21T08:20:49;101180.19;;;10.06;92.19
10460;BME280;54412;51.206;6.888;2024-02-21T08:23:18;101176.59;;;10.08;92.52
10460;BME280;54412;51.206;6.888;2024-02-21T08:25:45;101172.06;;;10.12;92.49
10460;BME280;54412;51.206;6.888;2024-02-21T08:28:11;101173.06;;;10.08;92.17
10460;BME280;54412;51.206;6.888;2024-02-21T08:30:38;101159.63;;;10.15;92.12
10460;BME280;54412;51.206;6.888;2024-02-21T08:33:04;101167.00;;;10.06;92.33
10460;BME280;54412;51.206;6.888;2024-02-21T08:35:29;101146.47;;;10.15;91.71
10460;BME280;54412;51.206;6.888;2024-02-21T08:37:55;101160.59;;;10.13;91.91
10460;BME280;54412;51.206;6.888;2024-02-21T08:40:21;101151.50;;;10.21;91.89
10460;BME280;54412;51.206;6.888;2024-02-21T08:42:47;101142.66;;;10.22;92.67
10460;BME280;54412;51.206;6.888;2024-02-21T08:45:13;101141.19;;;10.15;92.40
10460;BME280;54412;51.206;6.888;2024-02-21T08:47:42;101139.59;;;10.11;92.33
10460;BME280;54412;51.206;6.888;2024-02-21T08:50:09;101138.06;;;10.04;92.88
10460;BME280;54412;51.206;6.888;2024-02-21T08:52:37;101134.03;;;9.96;92.55
10460;BME280;54412;51.206;6.888;2024-02-21T08:55:03;101123.06;;;10.06;92.63
10460;BME280;54412;51.206;6.888;2024-02-21T08:57:29;101127.06;;;10.16;92.76
10460;BME280;54412;51.206;6.888;2024-02-21T09:00:05;101118.94;;;10.22;92.04
10460;BME280;54412;51.206;6.888;2024-02-21T09:02:39;101112.63;;;10.26;92.41
10460;BME280;54412;51.206;6.888;2024-02-21T09:05:05;101125.13;;;10.21;92.20
10460;BME280;54412;51.206;6.888;2024-02-21T09:07:31;101115.09;;;10.08;92.86
10460;BME280;54412;51.206;6.888;2024-02-21T09:09:57;101115.41;;;10.00;93.68
10460;BME280;54412;51.206;6.888;2024-02-21T09:12:23;101107.13;;;10.11;93.73
10460;BME280;54412;51.206;6.888;2024-02-21T09:14:48;101107.59;;;10.20;93.38
10460;BME280;54412;51.206;6.888;2024-02-21T09:17:19;101109.19;;;10.24;93.28
10460;BME280;54412;51.206;6.888;2024-02-21T09:19:47;101086.38;;;10.23;93.49
10460;BME280;54412;51.206;6.888;2024-02-21T09:22:13;101091.53;;;10.26;92.52
10460;BME280;54412;51.206;6.888;2024-02-21T09:24:39;101095.72;;;10.10;93.34
10460;BME280;54412;51.206;6.888;2024-02-21T09:27:05;101090.56;;;10.06;93.56
10460;BME280;54412;51.206;6.888;2024-02-21T09:29:31;101090.75;;;10.44;92.29
10460;BME280;54412;51.206;6.888;2024-02-21T09:31:59;101084.41;;;10.28;92.24
10460;BME280;54412;51.206;6.888;2024-02-21T09:34:25;101092.03;;;10.34;91.98
10460;BME280;54412;51.206;6.888;2024-02-21T09:36:50;101087.91;;;10.29;92.48
10460;BME280;54412;51.206;6.888;2024-02-21T09:39:16;101084.75;;;10.41;92.12
10460;BME280;54412;51.206;6.888;2024-02-21T09:41:50;101076.13;;;10.37;91.23
10460;BME280;54412;51.206;6.888;2024-02-21T09:44:19;101073.72;;;10.31;92.17
10460;BME280;54412;51.206;6.888;2024-02-21T09:47:03;101078.22;;;10.49;91.19
10460;BME280;54412;51.206;6.888;2024-02-21T09:49:34;101070.94;;;10.34;90.75
10460;BME280;54412;51.206;6.888;2024-02-21T09:52:05;101060.03;;;10.43;91.00
10460;BME280;54412;51.206;6.888;2024-02-21T09:54:33;101064.69;;;10.37;91.29
10460;BME280;54412;51.206;6.888;2024-02-21T09:57:03;101059.91;;;10.46;90.01
10460;BME280;54412;51.206;6.888;2024-02-21T09:59:32;101059.84;;;10.68;89.32
10460;BME280;54412;51.206;6.888;2024-02-21T10:01:59;101048.69;;;10.62;88.67
10460;BME280;54412;51.206;6.888;2024-02-21T10:04:29;101061.28;;;10.55;87.74
10460;BME280;54412;51.206;6.888;2024-02-21T10:06:55;101058.91;;;10.69;87.42
10460;BME280;54412;51.206;6.888;2024-02-21T10:09:22;101054.25;;;10.56;87.24
10460;BME280;54412;51.206;6.888;2024-02-21T10:11:50;101064.00;;;10.53;87.01
10460;BME280;54412;51.206;6.888;2024-02-21T10:14:16;101062.81;;;10.81;85.68
10460;BME280;54412;51.206;6.888;2024-02-21T10:16:45;101060.34;;;10.76;85.12
10460;BME280;54412;51.206;6.888;2024-02-21T10:19:20;101056.97;;;10.93;82.58
10460;BME280;54412;51.206;6.888;2024-02-21T10:22:07;101048.09;;;10.75;80.66
10460;BME280;54412;51.206;6.888;2024-02-21T10:24:34;101045.88;;;10.85;81.69
10460;BME280;54412;51.206;6.888;2024-02-21T10:27:06;101050.91;;;10.91;80.79
10460;BME280;54412;51.206;6.888;2024-02-21T10:29:34;101041.53;;;10.84;81.07
10460;BME280;54412;51.206;6.888;2024-02-21T10:32:18;101038.22;;;10.99;79.39
10460;BME280;54412;51.206;6.888;2024-02-21T10:34:44;101028.19;;;10.87;78.77
10460;BME280;54412;51.206;6.888;2024-02-21T10:37:11;101029.81;;;11.09;78.55
10460;BME280;54412;51.206;6.888;2024-02-21T10:39:41;101023.19;;;11.01;79.12
10460;BME280;54412;51.206;6.888;2024-02-21T10:42:11;101015.31;;;10.99;79.06
10460;BME280;54412;51.206;6.888;2024-02-21T10:44:38;101011.25;;;10.92;80.01
10460;BME280;54412;51.206;6.888;2024-02-21T10:47:10;101014.81;;;10.91;79.99
10460;BME280;54412;51.206;6.888;2024-02-21T10:49:41;101004.38;;;10.70;80.33
10460;BME280;54412;51.206;6.888;2024-02-21T10:52:17;100995.03;;;10.81;80.00
10460;BME280;54412;51.206;6.888;2024-02-21T10:54:56;100992.06;;;10.89;79.42
10460;BME280;54412;51.206;6.888;2024-02-21T10:57:22;100984.84;;;10.74;79.41
10460;BME280;54412;51.206;6.888;2024-02-21T10:59:50;100976.59;;;11.00;78.84
10460;BME280;54412;51.206;6.888;2024-02-21T11:02:16;100988.81;;;11.02;77.00
10460;BME280;54412;51.206;6.888;2024-02-21T11:04:43;100960.84;;;11.17;77.00
10460;BME280;54412;51.206;6.888;2024-02-21T11:07:10;100949.88;;;11.24;75.25
10460;BME280;54412;51.206;6.888;2024-02-21T11:09:36;100945.47;;;11.25;74.53
10460;BME280;54412;51.206;6.888;2024-02-21T11:12:06;100946.50;;;11.22;74.33
10460;BME280;54412;51.206;6.888;2024-02-21T11:14:33;100933.84;;;11.29;73.81
10460;BME280;54412;51.206;6.888;2024-02-21T11:17:18;100927.88;;;11.42;74.00
10460;BME280;54412;51.206;6.888;2024-02-21T11:19:45;100905.38;;;11.52;73.49
10460;BME280;54412;51.206;6.888;2024-02-21T11:22:20;100921.63;;;11.26;73.91
10460;BME280;54412;51.206;6.888;2024-02-21T11:24:48;100903.00;;;11.29;73.71
10460;BME280;54412;51.206;6.888;2024-02-21T11:27:21;100870.63;;;11.43;73.78
10460;BME280;54412;51.206;6.888;2024-02-21T11:29:56;100867.63;;;11.50;73.48
10460;BME280;54412;51.206;6.888;2024-02-21T11:32:22;100862.63;;;11.44;73.11
10460;BME280;54412;51.206;6.888;2024-02-21T11:35:02;100846.25;;;11.38;72.80
10460;BME280;54412;51.206;6.888;2024-02-21T11:37:34;100850.97;;;11.31;73.02
10460;BME280;54412;51.206;6.888;2024-02-21T11:40:03;100847.47;;;11.31;72.57
10460;BME280;54412;51.206;6.888;2024-02-21T11:42:30;100826.03;;;11.20;72.53
10460;BME280;54412;51.206;6.888;2024-02-21T11:44:57;100831.84;;;11.26;72.83
10460;BME280;54412;51.206;6.888;2024-02-21T11:47:23;100813.59;;;11.39;72.36
10460;BME280;54412;51.206;6.888;2024-02-21T11:49:49;100809.66;;;11.30;71.74
10460;BME280;54412;51.206;6.888;2024-02-21T11:52:23;100801.91;;;11.27;72.36
10460;BME280;54412;51.206;6.888;2024-02-21T11:54:53;100803.81;;;11.41;72.21
10460;BME280;54412;51.206;6.888;2024-02-21T11:57:20;100799.25;;;11.27;72.25
10460;BME280;54412;51.206;6.888;2024-02-21T11:59:46;100792.16;;;11.28;72.48
10460;BME280;54412;51.206;6.888;2024-02-21T12:02:13;100774.19;;;11.19;72.59
10460;BME280;54412;51.206;6.888;2024-02-21T12:04:39;100759.47;;;11.30;72.33
10460;BME280;54412;51.206;6.888;2024-02-21T12:07:05;100744.97;;;11.22;72.64
10460;BME280;54412;51.206;6.888;2024-02-21T12:09:34;100730.44;;;11.30;72.13
10460;BME280;54412;51.206;6.888;2024-02-21T12:12:05;100706.97;;;11.24;72.15
10460;BME280;54412;51.206;6.888;2024-02-21T12:14:33;100704.88;;;11.14;72.80
10460;BME280;54412;51.206;6.888;2024-02-21T12:17:00;100701.31;;;11.32;72.03
10460;BME280;54412;51.206;6.888;2024-02-21T12:19:30;100680.31;;;11.46;72.13
10460;BME280;54412;51.206;6.888;2024-02-21T12:21:58;100677.84;;;11.43;71.06
10460;BME280;54412;51.206;6.888;2024-02-21T12:24:26;100672.88;;;11.37;71.67
10460;BME280;54412;51.206;6.888;2024-02-21T12:26:53;100672.88;;;11.37;70.91
10460;BME280;54412;51.206;6.888;2024-02-21T12:29:23;100680.66;;;11.40;71.67
10460;BME280;54412;51.206;6.888;2024-02-21T12:31:50;100673.50;;;11.42;71.75
10460;BME280;54412;51.206;6.888;2024-02-21T12:34:16;100669.13;;;11.58;70.56
10460;BME280;54412;51.206;6.888;2024-02-21T12:36:44;100681.59;;;11.72;69.62
10460;BME280;54412;51.206;6.888;2024-02-21T12:39:10;100634.72;;;11.75;69.82
10460;BME280;54412;51.206;6.888;2024-02-21T12:41:37;100621.00;;;11.69;70.58
10460;BME280;54412;51.206;6.888;2024-02-21T12:44:11;100614.63;;;11.88;69.96
10460;BME280;54412;51.206;6.888;2024-02-21T12:46:38;100632.78;;;11.94;69.36
10460;BME280;54412;51.206;6.888;2024-02-21T12:49:05;100643.09;;;11.99;69.07
10460;BME280;54412;51.206;6.888;2024-02-21T12:51:34;100649.84;;;12.04;68.88
10460;BME280;54412;51.206;6.888;2024-02-21T12:54:01;100637.28;;;12.23;68.23